sensor_id;sensor_type;location;lat;lon;timestamp;temperature;humidity
18823;DHT22;9540;51.550;7.980;2023-04-01T00:02:20;8.60;99.90
18823;DHT22;9540;51.550;7.980;2023-04-01T00:04:50;8.60;99.90
18823;DHT22;9540;51.550;7.980;2023-04-01T00:07:18;8.60;99.90
18823;DHT22;9540;51.550;7.980;2023-04-01T00:09:45;8.60;99.90
18823;DHT22;9540;51.550;7.980;2023-04-01T00:12:12;8.60;99.90
18823;DHT22;9540;51.550;7.980;2023-04-01T00:14:40;8.60;99.90
18823;DHT22;9540;51.550;7.980;2023-04-01T00:17:07;8.60;99.90
18823;DHT22;9540;51.550;7.980;2023-04-01T00:19:36;8.60;99.90
18823;DHT22;9540;51.550;7.980;2023-04-01T00:22:03;8.60;99.90
18823;DHT22;9540;51.550;7.980;2023-04-01T00:24:31;8.60;99.90
18823;DHT22;9540;51.550;7.980;2023-04-01T00:26:58;8.60;99.90
18823;DHT22;9540;51.550;7.980;2023-04-01T00:29:25;8.60;99.90
18823;DHT22;9540;51.550;7.980;2023-04-01T00:31:55;8.60;99.90
18823;DHT22;9540;51.550;7.980;2023-04-01T00:34:23;8.60;99.90
18823;DHT22;9540;51.550;7.980;2023-04-01T00:36:52;8.50;99.90
18823;DHT22;9540;51.550;7.980;2023-04-01T00:39:20;8.50;99.90
18823;DHT22;9540;51.550;7.980;2023-04-01T00:41:47;8.50;99.90
18823;DHT22;9540;51.550;7.980;2023-04-01T00:44:17;8.50;99.90
18823;DHT22;9540;51.550;7.980;2023-04-01T00:46:44;8.50;99.90
18823;DHT22;9540;51.550;7.980;2023-04-01T00:49:12;8.50;99.90
18823;DHT22;9540;51.550;7.980;2023-04-01T00:51:41;8.40;99.90
18823;DHT22;9540;51.550;7.980;2023-04-01T00:54:10;8.40;99.90
18823;DHT22;9540;51.550;7.980;2023-04-01T00:56:41;8.40;99.90
18823;DHT22;9540;51.550;7.980;2023-04-01T00:59:13;8.40;99.90
18823;DHT22;9540;51.550;7.980;2023-04-01T01:01:41;8.40;99.90
18823;DHT22;9540;51.550;7.980;2023-04-01T01:04:21;8.40;99.90
18823;DHT22;9540;51.550;7.980;2023-04-01T01:06:56;8.30;99.90
18823;DHT22;9540;51.550;7.980;2023-04-01T01:09:37;8.30;99.90
18823;DHT22;9540;51.550;7.980;2023-04-01T01:12:11;8.30;99.90
18823;DHT22;9540;51.550;7.980;2023-04-01T01:14:53;8.30;99.90
18823;DHT22;9540;51.550;7.980;2023-04-01T01:17:29;8.30;99.90
18823;DHT22;9540;51.550;7.980;2023-04-01T01:20:27;8.30;99.90
18823;DHT22;9540;51.550;7.980;2023-04-01T01:26:36;8.30;99.90
18823;DHT22;9540;51.550;7.980;2023-04-01T01:29:13;8.30;99.90
18823;DHT22;9540;51.550;7.980;2023-04-01T01:31:52;8.30;99.90
18823;DHT22;9540;51.550;7.980;2023-04-01T01:34:23;8.30;99.90
18823;DHT22;9540;51.550;7.980;2023-04-01T01:36:59;8.30;99.90
18823;DHT22;9540;51.550;7.980;2023-04-01T01:39:30;8.30;99.90
18823;DHT22;9540;51.550;7.980;2023-04-01T01:42:10;8.20;99.90
18823;DHT22;9540;51.550;7.980;2023-04-01T01:44:39;8.20;99.90
18823;DHT22;9540;51.550;7.980;2023-04-01T01:47:09;8.40;99.90
18823;DHT22;9540;51.550;7.980;2023-04-01T01:49:37;8.40;99.90
18823;DHT22;9540;51.550;7.980;2023-04-01T01:52:07;8.50;99.90
18823;DHT22;9540;51.550;7.980;2023-04-01T01:54:35;8.40;99.90
18823;DHT22;9540;51.550;7.980;2023-04-01T01:57:07;8.40;99.90
18823;DHT22;9540;51.550;7.980;2023-04-01T01:59:40;8.40;99.90
18823;DHT22;9540;51.550;7.980;2023-04-01T02:02:10;8.40;99.90
18823;DHT22;9540;51.550;7.980;2023-04-01T02:04:44;8.40;99.90
18823;DHT22;9540;51.550;7.980;2023-04-01T02:07:17;8.40;99.90
18823;DHT22;9540;51.550;7.980;2023-04-01T02:09:46;8.50;99.90
18823;DHT22;9540;51.550;7.980;2023-04-01T02:12:15;8.50;99.90
18823;DHT22;9540;51.550;7.980;2023-04-01T02:14:45;8.50;99.90
18823;DHT22;9540;51.550;7.980;2023-04-01T02:17:16;8.50;99.90
18823;DHT22;9540;51.550;7.980;2023-04-01T02:19:47;8.40;99.90
18823;DHT22;9540;51.550;7.980;2023-04-01T02:22:19;8.40;99.90
18823;DHT22;9540;51.550;7.980;2023-04-01T02:24:49;8.40;99.90
18823;DHT22;9540;51.550;7.980;2023-04-01T02:27:17;8.30;99.90
18823;DHT22;9540;51.550;7.980;2023-04-01T02:29:44;8.30;99.90
18823;DHT22;9540;51.550;7.980;2023-04-01T02:32:13;8.30;99.90
18823;DHT22;9540;51.550;7.980;2023-04-01T02:34:42;8.40;99.90
18823;DHT22;9540;51.550;7.980;2023-04-01T02:37:11;8.40;99.90
18823;DHT22;9540;51.550;7.980;2023-04-01T02:39:39;8.30;99.90
18823;DHT22;9540;51.550;7.980;2023-04-01T02:42:08;8.40;99.90
18823;DHT22;9540;51.550;7.980;2023-04-01T02:44:36;8.40;99.90
18823;DHT22;9540;51.550;7.980;2023-04-01T02:47:03;8.40;99.90
18823;DHT22;9540;51.550;7.980;2023-04-01T02:49:31;8.40;99.90
18823;DHT22;9540;51.550;7.980;2023-04-01T02:51:58;8.40;99.90
18823;DHT22;9540;51.550;7.980;2023-04-01T02:54:25;8.40;99.90
18823;DHT22;9540;51.550;7.980;2023-04-01T02:56:54;8.30;99.90
18823;DHT22;9540;51.550;7.980;2023-04-01T02:59:21;8.30;99.90
18823;DHT22;9540;51.550;7.980;2023-04-01T03:01:48;8.30;99.90
18823;DHT22;9540;51.550;7.980;2023-04-01T03:04:15;8.30;99.90
18823;DHT22;9540;51.550;7.980;2023-04-01T03:06:42;8.30;99.90
18823;DHT22;9540;51.550;7.980;2023-04-01T03:09:09;8.30;99.90
18823;DHT22;9540;51.550;7.980;2023-04-01T03:11:36;8.30;99.90
18823;DHT22;9540;51.550;7.980;2023-04-01T03:14:04;8.30;99.90
18823;DHT22;9540;51.550;7.980;2023-04-01T03:16:32;8.20;99.90
18823;DHT22;9540;51.550;7.980;2023-04-01T03:18:59;8.20;99.90
18823;DHT22;9540;51.550;7.980;2023-04-01T03:21:27;8.30;99.90
18823;DHT22;9540;51.550;7.980;2023-04-01T03:23:54;8.30;99.90
18823;DHT22;9540;51.550;7.980;2023-04-01T03:26:21;8.20;99.90
18823;DHT22;9540;51.550;7.980;2023-04-01T03:28:49;8.30;99.90
18823;DHT22;9540;51.550;7.980;2023-04-01T03:31:17;8.20;99.90
18823;DHT22;9540;51.550;7.980;2023-04-01T03:33:45;8.20;99.90
18823;DHT22;9540;51.550;7.980;2023-04-01T03:36:12;8.20;99.90
18823;DHT22;9540;51.550;7.980;2023-04-01T03:38:40;8.20;99.90
18823;DHT22;9540;51.550;7.980;2023-04-01T03:41:12;8.20;99.90
18823;DHT22;9540;51.550;7.980;2023-04-01T03:43:39;8.20;99.90
18823;DHT22;9540;51.550;7.980;2023-04-01T03:46:06;8.30;99.90
18823;DHT22;9540;51.550;7.980;2023-04-01T03:48:35;8.30;99.90
18823;DHT22;9540;51.550;7.980;2023-04-01T03:51:06;8.30;99.90
18823;DHT22;9540;51.550;7.980;2023-04-01T03:53:33;8.40;99.90
18823;DHT22;9540;51.550;7.980;2023-04-01T03:56:04;8.40;99.90
18823;DHT22;9540;51.550;7.980;2023-04-01T03:58:31;8.30;99.90
18823;DHT22;9540;51.550;7.980;2023-04-01T04:00:58;8.30;99.90
18823;DHT22;9540;51.550;7.980;2023-04-01T04:03:25;8.20;99.90
18823;DHT22;9540;51.550;7.980;2023-04-01T04:05:54;8.20;99.90
18823;DHT22;9540;51.550;7.980;2023-04-01T04:08:22;8.10;99.90
18823;DHT22;9540;51.550;7.980;2023-04-01T04:10:54;8.10;99.90
18823;DHT22;9540;51.550;7.980;2023-04-01T04:13:22;8.10;99.90
18823;DHT22;9540;51.550;7.980;2023-04-01T04:15:49;8.10;99.90
18823;DHT22;9540;51.550;7.980;2023-04-01T04:18:16;8.10;99.90
18823;DHT22;9540;51.550;7.980;2023-04-01T04:20:44;8.10;99.90
18823;DHT22;9540;51.550;7.980;2023-04-01T04:23:14;8.10;99.90
18823;DHT22;9540;51.550;7.980;2023-04-01T04:25:41;8.00;99.90
18823;DHT22;9540;51.550;7.980;2023-04-01T04:28:08;8.10;99.90
18823;DHT22;9540;51.550;7.980;2023-04-01T04:30:35;8.10;99.90
18823;DHT22;9540;51.550;7.980;2023-04-01T04:33:02;8.10;99.90
18823;DHT22;9540;51.550;7.980;2023-04-01T04:35:30;8.10;99.90
18823;DHT22;9540;51.550;7.980;2023-04-01T04:37:57;8.00;99.90
18823;DHT22;9540;51.550;7.980;2023-04-01T04:40:25;8.00;99.90
18823;DHT22;9540;51.550;7.980;2023-04-01T04:42:52;7.90;99.90
18823;DHT22;9540;51.550;7.980;2023-04-01T04:45:19;7.90;99.90
18823;DHT22;9540;51.550;7.980;2023-04-01T04:47:47;7.90;99.90
18823;DHT22;9540;51.550;7.980;2023-04-01T04:50:14;7.90;99.90
18823;DHT22;9540;51.550;7.980;2023-04-01T04:52:42;7.90;99.90
18823;DHT22;9540;51.550;7.980;2023-04-01T04:55:09;7.90;99.90
18823;DHT22;9540;51.550;7.980;2023-04-01T04:57:38;7.90;99.90
18823;DHT22;9540;51.550;7.980;2023-04-01T05:00:07;7.90;99.90
18823;DHT22;9540;51.550;7.980;2023-04-01T05:02:35;7.90;99.90
18823;DHT22;9540;51.550;7.980;2023-04-01T05:05:03;7.90;99.90
18823;DHT22;9540;51.550;7.980;2023-04-01T05:07:31;7.90;99.90
18823;DHT22;9540;51.550;7.980;2023-04-01T05:09:58;8.00;99.90
18823;DHT22;9540;51.550;7.980;2023-04-01T05:12:25;7.90;99.90
18823;DHT22;9540;51.550;7.980;2023-04-01T05:14:53;7.90;99.90
18823;DHT22;9540;51.550;7.980;2023-04-01T05:17:21;8.00;99.90
18823;DHT22;9540;51.550;7.980;2023-04-01T05:19:48;7.90;99.90
18823;DHT22;9540;51.550;7.980;2023-04-01T05:22:15;8.00;99.90
18823;DHT22;9540;51.550;7.980;2023-04-01T05:24:42;8.00;99.90
18823;DHT22;9540;51.550;7.980;2023-04-01T05:27:09;8.00;99.90
18823;DHT22;9540;51.550;7.980;2023-04-01T05:29:36;8.10;99.90
18823;DHT22;9540;51.550;7.980;2023-04-01T05:32:06;8.10;99.90
18823;DHT22;9540;51.550;7.980;2023-04-01T05:34:34;8.20;99.90
18823;DHT22;9540;51.550;7.980;2023-04-01T05:37:02;8.20;99.90
18823;DHT22;9540;51.550;7.980;2023-04-01T05:39:29;8.20;99.90
18823;DHT22;9540;51.550;7.980;2023-04-01T05:41:56;8.20;99.90
18823;DHT22;9540;51.550;7.980;2023-04-01T05:44:23;8.30;99.90
18823;DHT22;9540;51.550;7.980;2023-04-01T05:46:50;8.30;99.90
18823;DHT22;9540;51.550;7.980;2023-04-01T05:49:18;8.30;99.90
18823;DHT22;9540;51.550;7.980;2023-04-01T05:51:46;8.30;99.90
18823;DHT22;9540;51.550;7.980;2023-04-01T05:54:13;8.40;99.90
18823;DHT22;9540;51.550;7.980;2023-04-01T05:56:40;8.40;99.90
18823;DHT22;9540;51.550;7.980;2023-04-01T05:59:09;8.40;99.90
18823;DHT22;9540;51.550;7.980;2023-04-01T06:01:36;8.40;99.90
18823;DHT22;9540;51.550;7.980;2023-04-01T06:04:03;8.40;99.90
18823;DHT22;9540;51.550;7.980;2023-04-01T06:06:32;8.50;99.90
18823;DHT22;9540;51.550;7.980;2023-04-01T06:09:12;8.50;99.90
18823;DHT22;9540;51.550;7.980;2023-04-01T06:14:38;8.60;99.90
18823;DHT22;9540;51.550;7.980;2023-04-01T06:17:24;8.60;99.90
18823;DHT22;9540;51.550;7.980;2023-04-01T06:19:56;8.60;99.90
18823;DHT22;9540;51.550;7.980;2023-04-01T06:23:00;8.60;99.90
18823;DHT22;9540;51.550;7.980;2023-04-01T06:25:48;8.60;99.90
18823;DHT22;9540;51.550;7.980;2023-04-01T06:31:32;8.60;99.90
18823;DHT22;9540;51.550;7.980;2023-04-01T06:34:21;8.70;99.90
18823;DHT22;9540;51.550;7.980;2023-04-01T06:37:08;8.80;99.90
18823;DHT22;9540;51.550;7.980;2023-04-01T06:40:05;8.90;99.90
18823;DHT22;9540;51.550;7.980;2023-04-01T06:42:51;9.00;99.90
18823;DHT22;9540;51.550;7.980;2023-04-01T06:45:30;9.10;99.90
18823;DHT22;9540;51.550;7.980;2023-04-01T06:48:12;9.20;99.90
18823;DHT22;9540;51.550;7.980;2023-04-01T06:50:48;9.20;99.90
18823;DHT22;9540;51.550;7.980;2023-04-01T06:53:23;9.20;99.90
18823;DHT22;9540;51.550;7.980;2023-04-01T06:55:57;9.30;99.90
18823;DHT22;9540;51.550;7.980;2023-04-01T06:58:31;9.40;99.90
18823;DHT22;9540;51.550;7.980;2023-04-01T07:01:03;9.50;99.90
18823;DHT22;9540;51.550;7.980;2023-04-01T07:03:33;9.60;99.90
18823;DHT22;9540;51.550;7.980;2023-04-01T07:06:03;9.80;99.90
18823;DHT22;9540;51.550;7.980;2023-04-01T07:08:35;9.80;99.90
18823;DHT22;9540;51.550;7.980;2023-04-01T07:11:05;10.00;99.90
18823;DHT22;9540;51.550;7.980;2023-04-01T07:13:36;10.10;99.90
18823;DHT22;9540;51.550;7.980;2023-04-01T07:16:12;10.20;99.90
18823;DHT22;9540;51.550;7.980;2023-04-01T07:18:44;10.50;99.90
18823;DHT22;9540;51.550;7.980;2023-04-01T07:21:22;10.50;99.90
18823;DHT22;9540;51.550;7.980;2023-04-01T07:23:51;10.50;99.90
18823;DHT22;9540;51.550;7.980;2023-04-01T07:26:21;10.60;99.90
18823;DHT22;9540;51.550;7.980;2023-04-01T07:28:50;10.60;99.90
18823;DHT22;9540;51.550;7.980;2023-04-01T07:31:26;10.70;99.90
18823;DHT22;9540;51.550;7.980;2023-04-01T07:34:02;10.80;99.90
18823;DHT22;9540;51.550;7.980;2023-04-01T07:36:38;10.90;99.90
18823;DHT22;9540;51.550;7.980;2023-04-01T07:39:15;11.10;99.90
18823;DHT22;9540;51.550;7.980;2023-04-01T07:41:52;11.30;99.90
18823;DHT22;9540;51.550;7.980;2023-04-01T07:44:28;11.20;99.90
18823;DHT22;9540;51.550;7.980;2023-04-01T07:47:13;11.10;99.90
18823;DHT22;9540;51.550;7.980;2023-04-01T07:49:57;10.80;99.90
18823;DHT22;9540;51.550;7.980;2023-04-01T07:52:33;11.00;99.90
18823;DHT22;9540;51.550;7.980;2023-04-01T07:55:08;11.10;99.90
18823;DHT22;9540;51.550;7.980;2023-04-01T07:57:46;11.10;99.90
18823;DHT22;9540;51.550;7.980;2023-04-01T08:00:19;11.10;99.90
18823;DHT22;9540;51.550;7.980;2023-04-01T08:02:59;11.10;99.90
18823;DHT22;9540;51.550;7.980;2023-04-01T08:05:39;11.10;99.90
18823;DHT22;9540;51.550;7.980;2023-04-01T08:08:14;11.00;99.90
18823;DHT22;9540;51.550;7.980;2023-04-01T08:10:48;10.90;99.90
18823;DHT22;9540;51.550;7.980;2023-04-01T08:13:27;10.80;99.90
18823;DHT22;9540;51.550;7.980;2023-04-01T08:16:05;10.80;99.90
18823;DHT22;9540;51.550;7.980;2023-04-01T08:18:40;10.80;99.90
18823;DHT22;9540;51.550;7.980;2023-04-01T08:21:14;10.80;99.90
18823;DHT22;9540;51.550;7.980;2023-04-01T08:23:46;10.70;99.90
18823;DHT22;9540;51.550;7.980;2023-04-01T08:26:20;10.70;99.90
18823;DHT22;9540;51.550;7.980;2023-04-01T08:28:57;10.60;99.90
18823;DHT22;9540;51.550;7.980;2023-04-01T08:31:31;10.70;99.90
18823;DHT22;9540;51.550;7.980;2023-04-01T08:34:07;10.60;99.90
18823;DHT22;9540;51.550;7.980;2023-04-01T08:36:39;10.60;99.90
18823;DHT22;9540;51.550;7.980;2023-04-01T08:39:09;10.50;99.90
18823;DHT22;9540;51.550;7.980;2023-04-01T08:45:12;10.30;99.90
18823;DHT22;9540;51.550;7.980;2023-04-01T08:47:52;10.30;99.90
18823;DHT22;9540;51.550;7.980;2023-04-01T08:53:28;10.40;99.90
18823;DHT22;9540;51.550;7.980;2023-04-01T08:56:09;10.50;99.90
18823;DHT22;9540;51.550;7.980;2023-04-01T08:59:05;10.30;99.90
18823;DHT22;9540;51.550;7.980;2023-04-01T09:02:02;10.30;99.90
18823;DHT22;9540;51.550;7.980;2023-04-01T09:04:52;10.40;99.90
18823;DHT22;9540;51.550;7.980;2023-04-01T09:07:36;10.50;99.90
18823;DHT22;9540;51.550;7.980;2023-04-01T09:10:24;10.50;99.90
18823;DHT22;9540;51.550;7.980;2023-04-01T09:13:18;10.60;99.90
18823;DHT22;9540;51.550;7.980;2023-04-01T09:16:08;10.60;99.90
18823;DHT22;9540;51.550;7.980;2023-04-01T09:24:56;10.70;99.90
18823;DHT22;9540;51.550;7.980;2023-04-01T09:27:28;10.80;99.90
18823;DHT22;9540;51.550;7.980;2023-04-01T09:30:21;10.90;99.90
18823;DHT22;9540;51.550;7.980;2023-04-01T09:33:17;11.30;99.90
18823;DHT22;9540;51.550;7.980;2023-04-01T09:36:02;11.60;99.90
18823;DHT22;9540;51.550;7.980;2023-04-01T09:38:40;11.80;99.90
18823;DHT22;9540;51.550;7.980;2023-04-01T09:41:17;11.90;99.90
18823;DHT22;9540;51.550;7.980;2023-04-01T09:44:00;12.10;99.90
18823;DHT22;9540;51.550;7.980;2023-04-01T09:46:40;12.00;99.90
18823;DHT22;9540;51.550;7.980;2023-04-01T09:49:45;11.90;99.90
18823;DHT22;9540;51.550;7.980;2023-04-01T09:52:26;11.60;99.90
18823;DHT22;9540;51.550;7.980;2023-04-01T09:55:22;11.50;99.90
18823;DHT22;9540;51.550;7.980;2023-04-01T09:58:37;11.30;99.90
18823;DHT22;9540;51.550;7.980;2023-04-01T10:01:33;11.30;99.90
18823;DHT22;9540;51.550;7.980;2023-04-01T10:07:53;11.20;99.90
18823;DHT22;9540;51.550;7.980;2023-04-01T10:10:41;11.00;99.90
18823;DHT22;9540;51.550;7.980;2023-04-01T10:16:44;10.80;99.90
18823;DHT22;9540;51.550;7.980;2023-04-01T10:31:58;10.50;99.90
18823;DHT22;9540;51.550;7.980;2023-04-01T10:35:02;10.50;99.90
18823;DHT22;9540;51.550;7.980;2023-04-01T10:38:02;10.60;99.90
18823;DHT22;9540;51.550;7.980;2023-04-01T10:40:44;10.50;99.90
18823;DHT22;9540;51.550;7.980;2023-04-01T10:49:41;10.60;99.90
18823;DHT22;9540;51.550;7.980;2023-04-01T10:52:25;10.60;99.90
18823;DHT22;9540;51.550;7.980;2023-04-01T10:55:11;10.60;99.90
18823;DHT22;9540;51.550;7.980;2023-04-01T10:58:05;10.70;99.90
18823;DHT22;9540;51.550;7.980;2023-04-01T11:04:12;10.60;99.90
18823;DHT22;9540;51.550;7.980;2023-04-01T11:13:30;10.40;99.90
18823;DHT22;9540;51.550;7.980;2023-04-01T11:25:29;10.10;99.90
18823;DHT22;9540;51.550;7.980;2023-04-01T11:28:28;10.10;99.90
18823;DHT22;9540;51.550;7.980;2023-04-01T11:31:17;10.20;99.90
18823;DHT22;9540;51.550;7.980;2023-04-01T11:33:54;10.40;99.90
18823;DHT22;9540;51.550;7.980;2023-04-01T11:36:37;10.50;99.90
18823;DHT22;9540;51.550;7.980;2023-04-01T11:39:15;10.50;99.90
18823;DHT22;9540;51.550;7.980;2023-04-01T11:41:54;10.70;99.90
18823;DHT22;9540;51.550;7.980;2023-04-01T11:44:26;10.60;99.90
18823;DHT22;9540;51.550;7.980;2023-04-01T11:50:01;10.90;99.90
18823;DHT22;9540;51.550;7.980;2023-04-01T11:52:58;10.90;99.90
18823;DHT22;9540;51.550;7.980;2023-04-01T11:55:37;10.90;99.90
18823;DHT22;9540;51.550;7.980;2023-04-01T11:58:34;11.00;99.90
18823;DHT22;9540;51.550;7.980;2023-04-01T12:01:17;11.20;99.90
18823;DHT22;9540;51.550;7.980;2023-04-01T12:06:51;11.40;99.90
18823;DHT22;9540;51.550;7.980;2023-04-01T12:09:28;11.40;99.90
18823;DHT22;9540;51.550;7.980;2023-04-01T12:12:08;11.20;99.90
18823;DHT22;9540;51.550;7.980;2023-04-01T12:14:44;10.90;99.90
18823;DHT22;9540;51.550;7.980;2023-04-01T12:17:26;10.90;99.90
18823;DHT22;9540;51.550;7.980;2023-04-01T12:20:09;10.90;99.90
18823;DHT22;9540;51.550;7.980;2023-04-01T12:22:46;11.00;99.90
18823;DHT22;9540;51.550;7.980;2023-04-01T12:25:26;11.00;99.90
18823;DHT22;9540;51.550;7.980;2023-04-01T12:28:03;10.90;99.90
18823;DHT22;9540;51.550;7.980;2023-04-01T12:30:42;10.90;99.90
18823;DHT22;9540;51.550;7.980;2023-04-01T12:36:24;10.70;99.90
18823;DHT22;9540;51.550;7.980;2023-04-01T12:39:21;10.80;99.90
18823;DHT22;9540;51.550;7.980;2023-04-01T12:41:58;10.80;99.90
18823;DHT22;9540;51.550;7.980;2023-04-01T12:44:35;10.80;99.90
18823;DHT22;9540;51.550;7.980;2023-04-01T12:47:25;10.80;99.90
18823;DHT22;9540;51.550;7.980;2023-04-01T12:50:12;10.70;99.90
18823;DHT22;9540;51.550;7.980;2023-04-01T12:52:53;10.70;99.90
18823;DHT22;9540;51.550;7.980;2023-04-01T12:55:37;10.70;99.90
18823;DHT22;9540;51.550;7.980;2023-04-01T12:58:42;10.50;99.90
18823;DHT22;9540;51.550;7.980;2023-04-01T13:01:27;10.40;99.90
18823;DHT22;9540;51.550;7.980;2023-04-01T13:07:04;10.30;99.90
18823;DHT22;9540;51.550;7.980;2023-04-01T13:09:43;10.30;99.90
18823;DHT22;9540;51.550;7.980;2023-04-01T13:12:41;10.40;99.90
18823;DHT22;9540;51.550;7.980;2023-04-01T13:15:25;10.50;99.90
18823;DHT22;9540;51.550;7.980;2023-04-01T13:18:02;10.60;99.90
18823;DHT22;9540;51.550;7.980;2023-04-01T13:20:42;10.80;99.90
18823;DHT22;9540;51.550;7.980;2023-04-01T13:23:29;10.80;99.90
18823;DHT22;9540;51.550;7.980;2023-04-01T13:26:09;11.00;99.90
18823;DHT22;9540;51.550;7.980;2023-04-01T13:28:44;11.10;99.90
18823;DHT22;9540;51.550;7.980;2023-04-01T13:31:29;11.10;99.90
18823;DHT22;9540;51.550;7.980;2023-04-01T13:34:13;11.10;99.90
18823;DHT22;9540;51.550;7.980;2023-04-01T13:36:54;11.00;99.90
18823;DHT22;9540;51.550;7.980;2023-04-01T13:39:40;10.90;99.90
18823;DHT22;9540;51.550;7.980;2023-04-01T13:42:20;10.90;99.90
18823;DHT22;9540;51.550;7.980;2023-04-01T13:44:51;10.90;99.90
18823;DHT22;9540;51.550;7.980;2023-04-01T13:47:53;10.90;99.90
18823;DHT22;9540;51.550;7.980;2023-04-01T13:50:34;10.90;99.90
18823;DHT22;9540;51.550;7.980;2023-04-01T13:56:12;10.70;99.90
18823;DHT22;9540;51.550;7.980;2023-04-01T13:59:10;10.60;99.90
18823;DHT22;9540;51.550;7.980;2023-04-01T14:01:49;10.50;99.90
18823;DHT22;9540;51.550;7.980;2023-04-01T14:04:34;10.40;99.90
18823;DHT22;9540;51.550;7.980;2023-04-01T14:07:19;10.30;99.90
18823;DHT22;9540;51.550;7.980;2023-04-01T14:09:59;10.40;99.90
18823;DHT22;9540;51.550;7.980;2023-04-01T14:12:31;10.50;99.90
18823;DHT22;9540;51.550;7.980;2023-04-01T14:18:13;10.50;99.90
18823;DHT22;9540;51.550;7.980;2023-04-01T14:20:49;10.50;99.90
18823;DHT22;9540;51.550;7.980;2023-04-01T14:23:38;10.40;99.90
18823;DHT22;9540;51.550;7.980;2023-04-01T14:29:28;10.40;99.90
18823;DHT22;9540;51.550;7.980;2023-04-01T14:32:07;10.30;99.90
18823;DHT22;9540;51.550;7.980;2023-04-01T14:34:52;10.20;99.90
18823;DHT22;9540;51.550;7.980;2023-04-01T14:40:40;10.00;99.90
18823;DHT22;9540;51.550;7.980;2023-04-01T14:43:28;9.90;99.90
18823;DHT22;9540;51.550;7.980;2023-04-01T14:49:19;9.80;99.90
18823;DHT22;9540;51.550;7.980;2023-04-01T14:51:49;9.80;99.90
18823;DHT22;9540;51.550;7.980;2023-04-01T14:54:20;9.80;99.90
18823;DHT22;9540;51.550;7.980;2023-04-01T14:56:50;9.80;99.90
18823;DHT22;9540;51.550;7.980;2023-04-01T14:59:27;9.90;99.90
18823;DHT22;9540;51.550;7.980;2023-04-01T15:02:01;9.90;99.90
18823;DHT22;9540;51.550;7.980;2023-04-01T15:04:50;9.90;99.90
18823;DHT22;9540;51.550;7.980;2023-04-01T15:07:42;9.80;99.90
18823;DHT22;9540;51.550;7.980;2023-04-01T15:10:27;9.80;99.90
18823;DHT22;9540;51.550;7.980;2023-04-01T15:13:08;9.80;99.90
18823;DHT22;9540;51.550;7.980;2023-04-01T15:15:49;9.80;99.90
18823;DHT22;9540;51.550;7.980;2023-04-01T15:18:31;9.90;99.90
18823;DHT22;9540;51.550;7.980;2023-04-01T15:21:17;9.90;99.90
18823;DHT22;9540;51.550;7.980;2023-04-01T15:24:03;9.90;99.90
18823;DHT22;9540;51.550;7.980;2023-04-01T15:26:47;10.00;99.90
18823;DHT22;9540;51.550;7.980;2023-04-01T15:29:38;10.00;99.90
18823;DHT22;9540;51.550;7.980;2023-04-01T15:32:16;10.10;99.90
18823;DHT22;9540;51.550;7.980;2023-04-01T15:34:52;10.10;99.90
18823;DHT22;9540;51.550;7.980;2023-04-01T15:37:31;10.10;99.90
18823;DHT22;9540;51.550;7.980;2023-04-01T15:40:11;10.10;99.90
18823;DHT22;9540;51.550;7.980;2023-04-01T15:42:53;10.20;99.90
18823;DHT22;9540;51.550;7.980;2023-04-01T15:45:35;10.20;99.90
18823;DHT22;9540;51.550;7.980;2023-04-01T15:48:21;10.10;99.90
18823;DHT22;9540;51.550;7.980;2023-04-01T15:51:07;10.00;99.90
18823;DHT22;9540;51.550;7.980;2023-04-01T15:53:56;9.90;99.90
18823;DHT22;9540;51.550;7.980;2023-04-01T15:56:36;9.90;99.90
18823;DHT22;9540;51.550;7.980;2023-04-01T15:59:21;9.90;99.90
18823;DHT22;9540;51.550;7.980;2023-04-01T16:01:56;9.90;99.90
18823;DHT22;9540;51.550;7.980;2023-04-01T16:04:51;10.00;99.90
18823;DHT22;9540;51.550;7.980;2023-04-01T16:07:42;10.00;99.90
18823;DHT22;9540;51.550;7.980;2023-04-01T16:10:23;9.90;99.90
18823;DHT22;9540;51.550;7.980;2023-04-01T16:13:03;9.90;99.90
18823;DHT22;9540;51.550;7.980;2023-04-01T16:15:39;9.90;99.90
18823;DHT22;9540;51.550;7.980;2023-04-01T16:21:08;9.80;99.90
18823;DHT22;9540;51.550;7.980;2023-04-01T16:23:40;9.80;99.90
18823;DHT22;9540;51.550;7.980;2023-04-01T16:26:16;9.80;99.90
18823;DHT22;9540;51.550;7.980;2023-04-01T16:28:54;9.80;99.90
18823;DHT22;9540;51.550;7.980;2023-04-01T16:31:35;9.80;99.90
18823;DHT22;9540;51.550;7.980;2023-04-01T16:34:10;9.80;99.90
18823;DHT22;9540;51.550;7.980;2023-04-01T16:36:44;9.80;99.90
18823;DHT22;9540;51.550;7.980;2023-04-01T16:39:26;9.90;99.90
18823;DHT22;9540;51.550;7.980;2023-04-01T16:42:20;9.80;99.90
18823;DHT22;9540;51.550;7.980;2023-04-01T16:44:52;9.80;99.90
18823;DHT22;9540;51.550;7.980;2023-04-01T16:47:23;9.80;99.90
18823;DHT22;9540;51.550;7.980;2023-04-01T16:49:59;9.80;99.90
18823;DHT22;9540;51.550;7.980;2023-04-01T16:52:42;9.70;99.90
18823;DHT22;9540;51.550;7.980;2023-04-01T16:55:16;9.60;99.90
18823;DHT22;9540;51.550;7.980;2023-04-01T16:57:50;9.60;99.90
18823;DHT22;9540;51.550;7.980;2023-04-01T17:00:26;9.60;99.90
18823;DHT22;9540;51.550;7.980;2023-04-01T17:03:02;9.60;99.90
18823;DHT22;9540;51.550;7.980;2023-04-01T17:05:43;9.50;99.90
18823;DHT22;9540;51.550;7.980;2023-04-01T17:08:19;9.50;99.90
18823;DHT22;9540;51.550;7.980;2023-04-01T17:10:53;9.50;99.90
18823;DHT22;9540;51.550;7.980;2023-04-01T17:13:40;9.50;99.90
18823;DHT22;9540;51.550;7.980;2023-04-01T17:16:25;9.50;99.90
18823;DHT22;9540;51.550;7.980;2023-04-01T17:19:01;9.60;99.90
18823;DHT22;9540;51.550;7.980;2023-04-01T17:21:45;9.50;99.90
18823;DHT22;9540;51.550;7.980;2023-04-01T17:24:26;9.60;99.90
18823;DHT22;9540;51.550;7.980;2023-04-01T17:27:00;9.50;99.90
18823;DHT22;9540;51.550;7.980;2023-04-01T17:29:46;9.50;99.90
18823;DHT22;9540;51.550;7.980;2023-04-01T17:32:31;9.50;99.90
18823;DHT22;9540;51.550;7.980;2023-04-01T17:35:05;9.50;99.90
18823;DHT22;9540;51.550;7.980;2023-04-01T17:37:44;9.50;99.90
18823;DHT22;9540;51.550;7.980;2023-04-01T17:40:25;9.50;99.90
18823;DHT22;9540;51.550;7.980;2023-04-01T17:43:05;9.50;99.90
18823;DHT22;9540;51.550;7.980;2023-04-01T17:45:41;9.50;99.90
18823;DHT22;9540;51.550;7.980;2023-04-01T17:48:17;9.50;99.90
18823;DHT22;9540;51.550;7.980;2023-04-01T17:50:55;9.50;99.90
18823;DHT22;9540;51.550;7.980;2023-04-01T17:53:36;9.40;99.90
18823;DHT22;9540;51.550;7.980;2023-04-01T17:56:18;9.40;99.90
18823;DHT22;9540;51.550;7.980;2023-04-01T17:58:58;9.40;99.90
18823;DHT22;9540;51.550;7.980;2023-04-01T18:01:45;9.40;99.90
18823;DHT22;9540;51.550;7.980;2023-04-01T18:07:36;9.40;99.90
18823;DHT22;9540;51.550;7.980;2023-04-01T18:10:25;9.40;99.90
18823;DHT22;9540;51.550;7.980;2023-04-01T18:13:25;9.30;99.90
18823;DHT22;9540;51.550;7.980;2023-04-01T18:16:07;9.30;99.90
18823;DHT22;9540;51.550;7.980;2023-04-01T18:18:48;9.30;99.90
18823;DHT22;9540;51.550;7.980;2023-04-01T18:21:24;9.30;99.90
18823;DHT22;9540;51.550;7.980;2023-04-01T18:23:56;9.30;99.90
18823;DHT22;9540;51.550;7.980;2023-04-01T18:26:28;9.30;99.90
18823;DHT22;9540;51.550;7.980;2023-04-01T18:28:59;9.30;99.90
18823;DHT22;9540;51.550;7.980;2023-04-01T18:31:34;9.20;99.90
18823;DHT22;9540;51.550;7.980;2023-04-01T18:34:10;9.20;99.90
18823;DHT22;9540;51.550;7.980;2023-04-01T18:36:44;9.20;99.90